Leonardo Xavier

Scout - Grêmio
3 Dec 2028
Sunday
Process

Personality

Adaptability (5) Ambition (16) Controversy (12) Loyalty (15) Pressure (12) Professionalism (19) Sportsmanship (12) Temperament (18)

Profile

Coaching Style Democratic
License National B
Determination 8
Man Management 13
Motivating 10
Discipline 8
Job Satisfaction
100%
Fatigue
0%
Role Scout
Wage 106.8K p/w
Contract 14.03.2029

Performance

Behaviour Good
Training Effectiveness
49%
Player Development
75%
Injury Prevention
30%
Tactical Implementation
65%

Recent Events

Assessed a player now
Attended a recruitment meeting now
Recommended a transfer target now
Recommended a transfer target now
Attended a recruitment meeting now
Recommended a transfer target now
Assessed a player now
Assessed a player 7d ago

Currently Monitoring

132
Player Club Status Ability Confidence Watched Last Observed Latest Vote
William Osula Wrexham Active 135 / 142 40% 1 02.12.2028 -
Luis Vázquez Mamelodi Sundowns Active 146 / 132 40% 1 02.12.2028 -
Rafael Mota Sporting CP Active 114 / 127 40% 1 30.11.2028 -
Mateo Faure BATE Active 100 / 97 40% 1 30.11.2028 -
Gideon Manaseh Ikorodu City Active 80 / 97 40% 2 27.11.2028 -
Martim Cunha Porto Active 109 / 120 40% 7 24.11.2028 -
Honest Ahanor Atalanta Active 149 / 145 40% 1 24.11.2028 -
Christos Mouzakitis Hull City Active 139 / 146 40% 5 23.11.2028 -
Miguel Figueiredo Benfica Active 123 / 132 40% 4 19.11.2028 -
Giovanni Leoni Lincoln City Active 150 / 153 40% 3 18.11.2028 -
Tyler Fletcher Rotherham United Active 111 / 123 40% 2 18.11.2028 -
Aytor Herrera Mineros de Guayana Active 79 / 91 40% 2 15.11.2028 -
Bernardo Lima Porto Active 114 / 124 40% 3 13.11.2028 -
Harrison Armstrong Ipswich Town Active 139 / 145 40% 2 13.11.2028 -
Felipe Varela Trujillanos Active 103 / 97 40% 2 11.11.2028 -
José Neto Benfica Active 132 / 130 40% 3 10.11.2028 -
Joel Ezra Enyimba Active 103 / 100 40% 2 10.11.2028 -
Chris Rigg West Ham United Active 140 / 145 40% 2 09.11.2028 -
Salvador Blopá Wolverhampton Active 119 / 129 40% 2 07.11.2028 -
Diego León Rotherham United Active 126 / 131 40% 1 07.11.2028 -
Máximo Munarriz San Telmo Active 101 / 106 40% 1 05.11.2028 -
Seydou Fofana Pacos de Ferreira Active 111 / 114 40% 1 05.11.2028 -
Trey Nyoni Rotherham United Active 146 / 149 40% 2 04.11.2028 -
Estanislao López Colón Active 93 / 98 40% 1 04.11.2028 -
Ayyoub Bouaddi Stoke City Active 148 / 158 40% 2 01.11.2028 -
Tobías Ramírez River Plate Active 129 / 135 40% 3 30.10.2028 -
Veljko Milosavljević Bournemouth Active 153 / 153 40% 1 20.10.2028 -
Daniel Banjaqui Benfica Active 132 / 134 40% 3 18.10.2028 -
Celías Ingenthron Platense Active 109 / 124 40% 2 18.10.2028 -
Breno Bidon Corinthians Active 132 / 135 40% 2 11.10.2028 -
Valentin Vidal Union Espanola Active 112 / 118 40% 1 11.10.2028 -
Joaquín Mosqueira Talleres Active 127 / 128 40% 3 08.10.2028 -
Lautaro Vargas Unión de Santa Fe Active 119 / 126 40% 2 08.10.2028 -
Kauã Moraes Flamengo Active 137 / 132 40% 2 05.10.2028 -
Tomás Porra Barracas Central Active 120 / 122 40% 1 05.10.2028 -
Lucas Bernabéu Central Córdoba SdE Active 105 / 113 40% 3 04.10.2028 -
Santiago Esquivel Banfield Active 120 / 122 40% 2 04.10.2028 -
Pablo Lúcio St. Gallen Active 113 / 118 40% 1 03.10.2028 -
Tobías Leiva Estudiantes Active 118 / 118 40% 1 29.09.2028 -
Ignacio Perruzzi San Lorenzo Active 123 / 131 40% 3 25.09.2028 -
Álex Valle Boca Juniors Active 152 / 144 40% 1 25.09.2028 -
Lucas Palavecino Banfield Active 109 / 121 40% 2 23.09.2028 -
Fabricio Corbalán Gimnasia La Plata Active 115 / 119 40% 3 20.09.2028 -
Alan Morinigo Olimpia Active 121 / 123 40% 3 15.09.2028 -
Nazareno Kihm Ferro Carril Oeste Active 121 / 115 40% 1 15.09.2028 -
Jefté Santa Cruz Active 129 / 122 40% 1 14.09.2028 -
Agustín Giay Palmeiras Active 132 / 135 40% 3 10.09.2028 -
Federico Pérez Astana Active 128 / 115 40% 1 09.09.2028 -
Tiago Peñalba San Martín Active 117 / 115 40% 1 05.09.2028 -
Toby Collyer West Bromwich Albion Active 145 / 144 40% 1 17.07.2028 -
Charlie Hughes Chesterfield Active 140 / 136 40% 1 10.07.2028 -
Bruno Brígido America Mineiro Active 119 / 112 62% 1 03.07.2028 Approve
Largie Ramazani Leeds United Active 153 / 147 40% 1 03.07.2028 -
Andrey Santos Bolton Wanderers Active 157 / 150 40% 2 19.06.2028 -
Sander Berge Derby County Active 159 / 147 40% 1 19.06.2028 -
Giacomo Raspadori Atalanta Active 146 / 151 40% 1 02.06.2028 -
Carlos Alcaraz Stoke City Active 157 / 154 40% 1 31.05.2028 -
Alex Scott Bournemouth Active 148 / 158 40% 3 29.05.2028 -
Boubacar Kamara Aston Villa Active 175 / 166 40% 1 27.05.2028 -
Neco Williams Wrexham Active 143 / 146 40% 2 25.05.2028 -
Matteo Ruggeri Middlesbrough Active 157 / 156 40% 3 25.05.2028 -
Callum Brittain Middlesbrough Active 144 / 132 40% 2 24.05.2028 -
Archie Gray Southampton Active 161 / 153 40% 2 24.05.2028 -
Vitaly Janelt Derby County Active 153 / 147 40% 5 21.05.2028 -
Mats Wieffer Brighton Active 152 / 151 40% 1 18.05.2028 -
Maximiliano Araújo West Ham United Active 149 / 154 40% 5 13.05.2028 -
Joe Rodon Blackburn Rovers Active 138 / 142 40% 3 13.05.2028 -
Jayden Bogle Leeds United Active 139 / 141 40% 2 12.05.2028 -
André Wolverhampton Active 160 / 150 40% 3 11.05.2028 -
Ousmane Diomande Nottingham Forest Active 158 / 159 40% 1 10.05.2028 -
Tino Livramento Newcastle United Active 159 / 164 40% 4 09.05.2028 -
Óscar Mingueza Crystal Palace Active 150 / 156 40% 2 09.05.2028 -
Adam Wharton Crystal Palace Active 165 / 158 40% 3 06.05.2028 -
Nordi Mukiele Sunderland Active 157 / 148 40% 1 05.05.2028 -
Manuel Ugarte Leicester City Active 145 / 150 40% 2 02.05.2028 -
Welington Southampton Active 135 / 136 40% 2 28.04.2028 -
Kenny Tete Fulham Active 149 / 146 40% 3 26.04.2028 -
Nathan Collins Brentford Active 159 / 155 40% 1 25.04.2028 -
Angeliño AS Roma Active 153 / 154 40% 3 24.04.2028 -
Amadou Onana Aston Villa Active 156 / 158 40% 1 20.04.2028 -
Jan Paul van Hecke Tottenham Active 172 / 164 40% 1 19.04.2028 -
Bafodé Diakité Plymouth Argyle Active 139 / 142 40% 1 19.04.2028 -
Exequiel Palacios Lazio Active 155 / 162 40% 3 18.04.2028 -
Manu Koné AS Roma Active 171 / 169 40% 1 16.04.2028 -
Matheus Bidu Corinthians Active 139 / 126 40% 1 07.04.2028 -
Renato Sanches Leiria Active 144 / 135 40% 1 07.04.2028 -
Fabrício Bruno Cruzeiro Active 131 / 136 40% 4 04.04.2028 -
Vitinho Botafogo Active 136 / 134 40% 3 04.04.2028 -
Enzo Díaz Sport Recife Active 138 / 134 40% 1 01.04.2028 -
Caio Alexandre Bahia Active 127 / 133 40% 1 31.03.2028 -
Lucas Paquetá Flamengo Active 142 / 145 40% 1 25.03.2028 -
Jarrad Branthwaite Everton Active 161 / 159 40% 1 24.03.2028 -
Shea Charles Southampton Active 150 / 144 40% 1 20.03.2028 -
Renan Lodi Atlético Mineiro Active 141 / 134 40% 2 19.03.2028 -
William Cruzeiro Active 145 / 132 40% 1 18.03.2028 -
Luciano Juba Bahia Active 126 / 136 40% 2 30.11.2027 -
Robert Renan Zenit Active 133 / 130 40% 1 30.11.2027 -
Marinho Vitória Active 126 / 129 62% 1 14.06.2027 Approve
Andrey Santa Cruz Active 111 / 112 62% 1 01.06.2027 Approve
João Valido Chaves Active 114 / 109 40% 2 30.11.2026 -
Lucas Cañizares Tondela Active 98 / 106 40% 3 30.11.2026 -
Anthony Patterson Wrexham Active 137 / 125 40% 1 28.11.2026 -
Leon Goretzka Aston Villa Active 159 / 154 40% 1 24.11.2026 -
Will Dennis Milton Keynes Dons Active 102 / 101 40% 1 22.11.2026 -
Robin Roefs Sunderland Active 149 / 144 40% 4 14.11.2026 -
Radek Vítek Middlesbrough Active 125 / 133 40% 2 14.11.2026 -
Hwang In-Beom Porto Active 138 / 146 40% 2 13.11.2026 -
Cezary Miszta Rio Ave Active 125 / 128 40% 4 12.11.2026 -
João Gonçalves Oliveirense Active 117 / 115 40% 3 07.11.2026 -
James Trafford Leeds United Active 135 / 139 40% 2 05.11.2026 -
Caoimhin Kelleher Brentford Active 158 / 146 40% 1 05.11.2026 -
Alberto Costa Porto Active 145 / 145 40% 1 01.11.2026 -
Santiago Ramos Mingo Bahia Active 143 / 136 40% 1 01.11.2026 Needs More Info
Zion Suzuki Aston Villa Active 145 / 138 40% 1 31.10.2026 -
Victor Froholdt Porto Active 150 / 161 40% 1 30.10.2026 -
Nathan Trott Cardiff City Active 126 / 119 40% 1 29.10.2026 -
Nehuén Pérez Porto Active 147 / 141 40% 1 20.10.2026 -
Josh Keeley Luton Town Active 114 / 127 40% 1 14.10.2026 -
Jan Bednarek Porto Active 136 / 142 40% 2 12.10.2026 -
Guilherme Arana Fluminense Active 140 / 139 40% 1 12.10.2026 -
Erik Lira Cruz Azul Active 128 / 137 40% 1 10.10.2026 -
Iván Fresneda Sporting CP Active 145 / 141 40% 1 03.10.2026 -
Víctor Gómez Braga Active 140 / 140 40% 1 03.10.2026 -
Juan Diego Castillo Vitoria Guimaraes Active 110 / 122 40% 1 30.09.2026 -
Matheus Mendes Alverca Active 111 / 118 40% 1 28.09.2026 -
Lucão Gil Vicente Active 125 / 122 40% 1 28.09.2026 -
Nicolás Sumavil Platense Active 114 / 120 40% 1 27.09.2026 -
Xaver Schlager Nottingham Forest Active 147 / 148 40% 1 25.09.2026 -
Lucas Veríssimo Santos Active 130 / 137 40% 1 22.09.2026 -
Rico Henry River Plate Active 147 / 140 40% 1 13.09.2026 -
Patrick Sequeira Casa Pia Active 125 / 122 40% 1 09.09.2026 -
Mikel Oyarzábal Real Sociedad Active 163 / 160 40% 1 01.08.2026 -